createdAt,value
2017-06-05T00:08:30.189Z,1006.4
2017-06-05T00:18:40.337Z,1006.5
2017-06-05T00:28:50.430Z,1006.4
2017-06-05T00:39:00.559Z,1006.3
2017-06-05T00:49:10.699Z,1006.3
2017-06-05T00:59:20.811Z,1006.2
2017-06-05T01:09:30.989Z,1006.2
2017-06-05T01:19:41.167Z,1006.2
2017-06-05T01:29:51.397Z,1006.1
2017-06-05T01:40:01.676Z,1006.2
2017-06-05T01:50:11.982Z,1006.1
2017-06-05T02:00:22.290Z,1006.2
2017-06-05T02:10:32.607Z,1006.1
2017-06-05T02:20:42.917Z,1006
2017-06-05T02:30:53.274Z,1006
2017-06-05T02:41:03.633Z,1006.1
2017-06-05T02:51:14.002Z,1006.1
2017-06-05T03:01:24.352Z,1006
2017-06-05T03:11:34.842Z,1005.9
2017-06-05T03:21:45.067Z,1005.9
2017-06-05T03:31:55.349Z,1005.8
2017-06-05T03:42:05.588Z,1005.8
2017-06-05T03:52:15.815Z,1005.7
2017-06-05T04:02:26.002Z,1005.7
2017-06-05T04:12:36.148Z,1005.7
2017-06-05T04:22:46.474Z,1005.7
2017-06-05T04:32:56.013Z,1005.7
2017-06-05T04:43:05.809Z,1005.8
2017-06-05T04:53:15.507Z,1005.8
2017-06-05T05:03:25.151Z,1005.8
2017-06-05T05:13:34.726Z,1005.9
2017-06-05T05:23:44.237Z,1005.8
2017-06-05T05:33:53.628Z,1005.8
2017-06-05T05:44:02.980Z,1005.8
2017-06-05T05:54:12.294Z,1005.8
2017-06-05T06:04:21.465Z,1005.8
2017-06-05T06:14:30.471Z,1005.7
2017-06-05T06:24:39.323Z,1005.8
2017-06-05T06:34:47.943Z,1005.7
2017-06-05T06:44:56.342Z,1005.8
2017-06-05T06:55:04.676Z,1005.7
2017-06-05T07:05:12.970Z,1005.7
2017-06-05T07:15:21.213Z,1005.7
2017-06-05T07:25:29.434Z,1005.8
2017-06-05T07:35:37.616Z,1005.6
2017-06-05T07:45:45.790Z,1005.6
2017-06-05T07:55:53.915Z,1005.6
2017-06-05T08:06:01.944Z,1005.5
2017-06-05T08:16:10.004Z,1005.4
2017-06-05T08:26:17.908Z,1005.3
2017-06-05T08:36:25.702Z,1005.2
2017-06-05T08:46:33.229Z,1005.2
2017-06-05T08:56:40.788Z,1005.1
2017-06-05T09:06:48.268Z,1004.9
2017-06-05T09:16:55.932Z,1005
2017-06-05T09:27:03.538Z,1004.8
2017-06-05T09:37:11.118Z,1004.6
2017-06-05T09:47:18.711Z,1004.5
2017-06-05T09:57:26.191Z,1004.5
2017-06-05T10:07:33.598Z,1004.4
2017-06-05T10:17:40.959Z,1004.2
2017-06-05T10:27:48.280Z,1004.1
2017-06-05T10:37:55.606Z,1004
2017-06-05T10:48:02.900Z,1003.9
2017-06-05T10:58:10.264Z,1003.9
2017-06-05T11:08:17.585Z,1003.8
2017-06-05T11:18:24.798Z,1003.7
2017-06-05T11:28:32.121Z,1003.6
2017-06-05T11:38:39.710Z,1003.5
2017-06-05T11:48:47.022Z,1003.5
2017-06-05T11:58:54.237Z,1003.4
2017-06-05T12:09:01.431Z,1003.2
2017-06-05T12:19:08.607Z,1003.2
2017-06-05T12:29:15.699Z,1003.1
2017-06-05T12:39:22.968Z,1003.1
2017-06-05T12:49:30.204Z,1003
2017-06-05T12:59:37.208Z,1003
2017-06-05T13:09:44.133Z,1002.8
2017-06-05T13:19:51.251Z,1002.9
2017-06-05T13:29:58.331Z,1002.7
2017-06-05T13:40:05.337Z,1002.5
2017-06-05T13:50:12.359Z,1002.4
2017-06-05T14:00:19.653Z,1002.3
2017-06-05T14:10:27.022Z,1002.4
2017-06-05T14:20:34.167Z,1002.1
2017-06-05T14:30:41.071Z,1001.9
2017-06-05T14:40:47.823Z,1001.9
2017-06-05T14:50:54.635Z,1001.6
2017-06-05T15:01:01.710Z,1001.4
2017-06-05T15:11:08.884Z,1001.4
2017-06-05T15:21:16.409Z,1001.4
2017-06-05T15:31:24.161Z,1001.2
2017-06-05T15:41:32.026Z,1001.1
2017-06-05T15:51:39.952Z,1001
2017-06-05T16:01:47.803Z,1000.9
2017-06-05T16:11:55.405Z,1000.9
2017-06-05T16:22:02.704Z,1000.7
2017-06-05T16:32:09.594Z,1000.5
2017-06-05T16:42:16.379Z,1000.4
2017-06-05T16:52:23.275Z,1000.2
2017-06-05T17:02:30.213Z,1000.1
2017-06-05T17:12:37.391Z,1000
2017-06-05T17:22:44.599Z,999.8
2017-06-05T17:32:52.180Z,999.8
2017-06-05T17:42:59.854Z,999.9
2017-06-05T17:53:07.462Z,999.7
2017-06-05T18:03:15.379Z,999.6
2017-06-05T18:13:23.490Z,999.5
2017-06-05T18:23:31.389Z,999.5
2017-06-05T18:33:39.314Z,999.3
2017-06-05T18:43:47.221Z,999.2
2017-06-05T18:53:55.315Z,999.1
2017-06-05T19:04:03.616Z,999.1
2017-06-05T19:14:12.076Z,999
2017-06-05T19:24:20.778Z,999
2017-06-05T19:34:29.571Z,998.9
2017-06-05T19:44:38.463Z,998.9
2017-06-05T19:54:47.430Z,998.8
2017-06-05T20:04:56.408Z,998.8
2017-06-05T20:15:05.551Z,998.7
2017-06-05T20:25:14.642Z,998.6
2017-06-05T20:35:23.750Z,998.4
2017-06-05T20:45:32.922Z,998.3
2017-06-05T20:55:42.213Z,998.4
2017-06-05T21:05:51.546Z,998.1
2017-06-05T21:16:00.903Z,998
2017-06-05T21:26:10.236Z,997.8
2017-06-05T21:36:19.587Z,997.7
2017-06-05T21:46:29.006Z,997.6
2017-06-05T21:56:38.422Z,997.5
2017-06-05T22:06:47.888Z,997.2
2017-06-05T22:16:57.358Z,997.1
2017-06-05T22:27:06.774Z,996.9
2017-06-05T22:37:16.161Z,996.8
2017-06-05T22:47:25.616Z,996.8
2017-06-05T22:57:35.096Z,996.5
2017-06-05T23:07:44.582Z,996.4
2017-06-05T23:17:54.049Z,996.2
2017-06-05T23:28:03.536Z,996
2017-06-05T23:38:13.035Z,995.9
2017-06-05T23:48:22.530Z,995.8
2017-06-05T23:58:32.050Z,995.8
